createdAt,value
2018-09-25T00:00:17.763Z,2.30
2018-09-25T00:02:51.617Z,2.03
2018-09-25T00:05:25.306Z,2.37
2018-09-25T00:07:59.078Z,2.07
2018-09-25T00:10:32.765Z,2.27
2018-09-25T00:13:06.590Z,2.17
2018-09-25T00:15:40.427Z,1.87
2018-09-25T00:18:14.345Z,2.43
2018-09-25T00:20:47.939Z,2.30
2018-09-25T00:23:21.850Z,2.17
2018-09-25T00:25:55.587Z,2.10
2018-09-25T00:28:29.470Z,1.77
2018-09-25T00:31:03.409Z,2.00
2018-09-25T00:33:37.211Z,2.03
2018-09-25T00:36:11.135Z,1.93
2018-09-25T00:38:45.074Z,1.93
2018-09-25T00:41:19.033Z,1.90
2018-09-25T00:43:52.726Z,2.20
2018-09-25T00:46:26.478Z,1.90
2018-09-25T00:49:00.276Z,2.00
2018-09-25T00:51:34.020Z,2.07
2018-09-25T00:54:07.691Z,1.90
2018-09-25T00:56:41.355Z,2.10
2018-09-25T00:59:15.356Z,1.80
2018-09-25T01:01:48.995Z,2.00
2018-09-25T01:04:22.923Z,2.00
2018-09-25T01:06:56.652Z,2.10
2018-09-25T01:09:30.173Z,1.80
2018-09-25T01:12:03.938Z,1.90
2018-09-25T01:14:37.781Z,2.00
2018-09-25T01:17:11.589Z,2.30
2018-09-25T01:19:45.277Z,1.80
2018-09-25T01:22:19.094Z,1.83
2018-09-25T01:24:52.759Z,2.10
2018-09-25T01:27:26.508Z,2.00
2018-09-25T01:30:00.362Z,2.00
2018-09-25T01:32:34.195Z,2.00
2018-09-25T01:35:07.852Z,1.60
2018-09-25T01:37:41.599Z,1.80
2018-09-25T01:40:15.473Z,1.90
2018-09-25T01:42:50.227Z,2.10
2018-09-25T01:45:23.871Z,1.80
2018-09-25T01:47:57.723Z,1.80
2018-09-25T01:50:31.563Z,1.70
2018-09-25T01:53:05.407Z,1.70
2018-09-25T01:55:39.123Z,1.80
2018-09-25T01:58:12.836Z,1.80
2018-09-25T02:00:46.715Z,1.70
2018-09-25T02:03:20.338Z,1.90
2018-09-25T02:05:54.132Z,2.00
2018-09-25T02:08:27.823Z,1.80
2018-09-25T02:11:01.655Z,2.27
2018-09-25T02:13:35.507Z,1.80
2018-09-25T02:16:09.377Z,1.80
2018-09-25T02:18:43.208Z,1.93
2018-09-25T02:21:16.865Z,1.80
2018-09-25T02:23:50.596Z,1.87
2018-09-25T02:26:24.265Z,2.00
2018-09-25T02:28:57.915Z,2.00
2018-09-25T02:31:31.487Z,1.80
2018-09-25T02:34:05.358Z,1.97
2018-09-25T02:36:38.967Z,2.20
2018-09-25T02:39:15.064Z,2.40
2018-09-25T02:41:49.243Z,1.90
2018-09-25T02:44:23.012Z,1.90
2018-09-25T02:46:56.692Z,1.70
2018-09-25T02:49:30.511Z,1.83
2018-09-25T02:52:04.225Z,1.93
2018-09-25T02:54:37.958Z,1.80
2018-09-25T02:57:11.638Z,1.90
2018-09-25T02:59:45.466Z,1.80
2018-09-25T03:02:19.152Z,1.73
2018-09-25T03:04:52.799Z,1.90
2018-09-25T03:07:26.648Z,1.60
2018-09-25T03:10:00.530Z,1.80
2018-09-25T03:12:34.416Z,2.00
2018-09-25T03:15:08.285Z,1.80
2018-09-25T03:17:42.062Z,1.90
2018-09-25T03:20:15.690Z,1.90
2018-09-25T03:22:49.389Z,2.00
2018-09-25T03:25:23.195Z,1.63
2018-09-25T03:27:56.920Z,2.10
2018-09-25T03:30:30.636Z,1.80
2018-09-25T03:33:04.242Z,1.90
2018-09-25T03:35:37.971Z,1.93
2018-09-25T03:38:11.803Z,1.80
2018-09-25T03:40:45.381Z,1.77
2018-09-25T03:43:19.078Z,1.77
2018-09-25T03:45:52.885Z,1.80
2018-09-25T03:48:26.607Z,1.83
2018-09-25T03:51:00.313Z,1.90
2018-09-25T03:53:33.982Z,1.67
2018-09-25T03:56:07.737Z,2.07
2018-09-25T03:58:41.435Z,1.50
2018-09-25T04:01:15.359Z,1.97
2018-09-25T04:03:48.955Z,1.70
2018-09-25T04:06:22.760Z,1.90
2018-09-25T04:08:56.597Z,1.70
2018-09-25T04:11:30.374Z,2.00
2018-09-25T04:14:04.214Z,1.90
2018-09-25T04:16:37.841Z,1.93
2018-09-25T04:19:11.689Z,1.70
2018-09-25T04:21:45.451Z,1.83
2018-09-25T04:24:19.237Z,1.70
2018-09-25T04:26:52.972Z,2.00
2018-09-25T04:29:26.518Z,1.70
2018-09-25T04:32:00.379Z,1.80
2018-09-25T04:34:34.018Z,1.63
2018-09-25T04:37:07.870Z,1.70
2018-09-25T04:39:41.663Z,1.90
2018-09-25T04:42:15.572Z,1.50
2018-09-25T04:44:49.301Z,1.53
2018-09-25T04:47:23.046Z,1.73
2018-09-25T04:49:56.923Z,1.80
2018-09-25T04:52:30.788Z,1.70
2018-09-25T04:55:04.659Z,1.80
2018-09-25T04:57:38.583Z,1.60
2018-09-25T05:00:12.323Z,1.73
2018-09-25T05:02:46.077Z,1.70
2018-09-25T05:05:19.861Z,1.60
2018-09-25T05:07:53.660Z,1.70
2018-09-25T05:10:27.503Z,1.83
2018-09-25T05:13:01.254Z,1.70
2018-09-25T05:15:35.000Z,2.00
2018-09-25T05:18:08.757Z,1.70
2018-09-25T05:20:42.625Z,1.60
2018-09-25T05:23:16.271Z,2.20
2018-09-25T05:25:49.937Z,1.70
2018-09-25T05:28:23.684Z,1.70
2018-09-25T05:30:57.366Z,1.80
2018-09-25T05:33:30.932Z,1.60
2018-09-25T05:36:04.635Z,1.80
2018-09-25T05:38:38.429Z,1.70
2018-09-25T05:41:12.142Z,1.60
2018-09-25T05:43:45.862Z,1.80
2018-09-25T05:46:19.555Z,1.50
2018-09-25T05:48:53.555Z,1.53
2018-09-25T05:51:27.177Z,1.53
2018-09-25T05:54:01.040Z,1.57
2018-09-25T05:56:34.774Z,1.70
2018-09-25T05:59:08.486Z,1.90
2018-09-25T06:01:42.320Z,1.77
2018-09-25T06:04:15.978Z,1.80
2018-09-25T06:06:49.702Z,1.73
2018-09-25T06:09:23.645Z,1.63
2018-09-25T06:11:57.239Z,1.80
2018-09-25T06:14:31.022Z,1.87
2018-09-25T06:17:04.668Z,1.80
2018-09-25T06:19:38.349Z,1.70
2018-09-25T06:22:12.016Z,1.90
2018-09-25T06:24:45.594Z,1.80
2018-09-25T06:27:19.355Z,1.60
2018-09-25T06:29:52.945Z,1.70
2018-09-25T06:32:26.510Z,1.70
2018-09-25T06:35:00.289Z,1.67
2018-09-25T06:37:34.057Z,1.97
2018-09-25T06:40:07.742Z,2.00
2018-09-25T06:42:41.259Z,2.47
2018-09-25T06:45:15.014Z,1.90
2018-09-25T06:47:48.910Z,2.10
2018-09-25T06:50:22.506Z,1.90
2018-09-25T06:52:56.249Z,2.40
2018-09-25T06:55:30.115Z,2.43
2018-09-25T06:58:03.867Z,1.97
2018-09-25T07:00:37.689Z,2.33
2018-09-25T07:03:11.391Z,2.20
2018-09-25T07:05:45.060Z,2.20
2018-09-25T07:08:18.863Z,2.07
2018-09-25T07:10:52.697Z,2.30
2018-09-25T07:13:26.256Z,2.43
2018-09-25T07:15:59.968Z,2.27
2018-09-25T07:18:33.865Z,2.80
2018-09-25T07:21:07.841Z,2.77
2018-09-25T07:23:41.654Z,3.17
2018-09-25T07:26:15.643Z,6.00
2018-09-25T07:28:49.479Z,5.77
2018-09-25T07:31:23.199Z,6.30
2018-09-25T07:33:56.866Z,5.33
2018-09-25T07:36:30.458Z,4.80
2018-09-25T07:39:04.295Z,4.00
2018-09-25T07:41:38.881Z,4.97
2018-09-25T07:44:12.732Z,3.90
2018-09-25T07:46:47.113Z,3.97
2018-09-25T07:49:20.972Z,4.20
2018-09-25T07:51:54.746Z,3.63
2018-09-25T07:54:29.303Z,2.97
2018-09-25T07:57:03.619Z,3.43
2018-09-25T07:59:38.097Z,2.97
2018-09-25T08:02:11.815Z,4.23
2018-09-25T08:04:45.519Z,4.53
2018-09-25T08:07:19.239Z,3.57
2018-09-25T08:09:53.044Z,3.67
2018-09-25T08:12:27.760Z,4.60
2018-09-25T08:15:01.666Z,5.30
2018-09-25T08:17:35.647Z,4.17
2018-09-25T08:20:09.709Z,4.30
2018-09-25T08:22:43.568Z,3.90
2018-09-25T08:25:17.647Z,4.30
2018-09-25T08:27:51.899Z,3.63
2018-09-25T08:30:25.711Z,3.43
2018-09-25T08:32:59.579Z,4.27
2018-09-25T08:35:33.331Z,3.53
2018-09-25T08:38:07.056Z,4.00
2018-09-25T08:40:41.887Z,3.73
2018-09-25T08:43:15.978Z,3.17
2018-09-25T08:45:49.795Z,3.80
2018-09-25T08:48:23.467Z,3.33
2018-09-25T08:50:57.882Z,3.03
2018-09-25T08:53:31.889Z,3.07
2018-09-25T08:56:06.285Z,3.20
2018-09-25T08:58:40.574Z,2.80
2018-09-25T09:01:14.852Z,3.47
2018-09-25T09:03:48.894Z,2.83
2018-09-25T09:06:23.119Z,2.63
2018-09-25T09:08:56.986Z,2.70
2018-09-25T09:11:30.751Z,2.73
2018-09-25T09:14:04.550Z,2.73
2018-09-25T09:23:50.729Z,2.70
2018-09-25T09:26:24.644Z,2.90
2018-09-25T09:28:58.573Z,2.37
2018-09-25T09:31:32.315Z,3.40
2018-09-25T09:34:05.950Z,2.37
2018-09-25T09:36:39.749Z,2.90
2018-09-25T09:39:14.320Z,2.77
2018-09-25T09:41:48.190Z,2.60
2018-09-25T09:44:21.698Z,2.27
2018-09-25T09:46:55.523Z,2.63
2018-09-25T09:49:29.288Z,2.80
2018-09-25T09:52:02.959Z,2.63
2018-09-25T09:54:36.603Z,2.67
2018-09-25T09:57:10.409Z,3.00
2018-09-25T09:59:44.109Z,4.00
2018-09-25T10:02:17.907Z,3.70
2018-09-25T10:04:51.802Z,3.20
2018-09-25T10:07:25.719Z,3.27
2018-09-25T10:09:59.434Z,3.47
2018-09-25T10:12:33.217Z,6.20
2018-09-25T10:15:06.705Z,7.97
2018-09-25T10:17:40.442Z,10.47
2018-09-25T10:20:14.232Z,10.27
2018-09-25T10:22:47.868Z,9.67
2018-09-25T10:25:21.571Z,9.43
2018-09-25T10:27:55.332Z,8.80
2018-09-25T10:30:29.157Z,7.70
2018-09-25T10:33:02.844Z,7.23
2018-09-25T10:35:36.768Z,6.43
2018-09-25T10:38:10.644Z,5.67
2018-09-25T10:40:44.500Z,6.03
2018-09-25T10:43:18.946Z,5.50
2018-09-25T10:45:52.892Z,4.83
2018-09-25T10:48:26.690Z,4.57
2018-09-25T10:51:00.366Z,4.93
2018-09-25T10:53:34.114Z,5.20
2018-09-25T10:56:07.828Z,4.90
2018-09-25T10:58:41.391Z,5.40
2018-09-25T11:01:15.115Z,4.70
2018-09-25T11:03:48.941Z,4.80
2018-09-25T11:06:22.566Z,4.90
2018-09-25T11:08:56.231Z,3.80
2018-09-25T11:11:29.961Z,3.83
2018-09-25T11:14:03.748Z,3.87
2018-09-25T11:16:37.659Z,3.97
2018-09-25T11:19:11.392Z,3.60
2018-09-25T11:21:44.980Z,3.27
2018-09-25T11:24:18.800Z,3.30
2018-09-25T11:26:52.472Z,2.93
2018-09-25T11:29:26.195Z,5.30
2018-09-25T11:31:59.867Z,4.77
2018-09-25T11:34:33.600Z,5.70
2018-09-25T11:37:07.330Z,6.50
2018-09-25T11:39:41.084Z,6.80
2018-09-25T11:42:15.012Z,8.30
2018-09-25T11:44:48.990Z,8.57
2018-09-25T11:47:22.744Z,8.83
2018-09-25T11:49:56.678Z,7.97
2018-09-25T11:52:30.631Z,7.13
2018-09-25T11:55:04.442Z,6.40
2018-09-25T11:57:38.237Z,6.10
2018-09-25T12:00:12.181Z,6.27
2018-09-25T12:02:45.820Z,6.27
2018-09-25T12:05:19.566Z,5.00
2018-09-25T12:07:53.387Z,5.23
2018-09-25T12:10:27.269Z,5.77
2018-09-25T12:13:01.037Z,5.37
2018-09-25T12:15:34.827Z,6.27
2018-09-25T12:18:08.387Z,6.37
2018-09-25T12:20:42.350Z,6.30
2018-09-25T12:23:16.209Z,5.70
2018-09-25T12:25:49.936Z,5.57
2018-09-25T12:28:23.739Z,4.80
2018-09-25T12:30:57.466Z,5.50
2018-09-25T12:33:31.223Z,6.00
2018-09-25T12:36:04.943Z,4.30
2018-09-25T12:38:38.638Z,4.93
2018-09-25T12:41:13.334Z,4.90
2018-09-25T12:43:47.130Z,5.53
2018-09-25T12:46:20.875Z,4.67
2018-09-25T12:48:54.528Z,4.50
2018-09-25T12:51:28.424Z,4.03
2018-09-25T12:54:02.150Z,4.67
2018-09-25T12:56:35.877Z,3.73
2018-09-25T12:59:09.696Z,4.33
2018-09-25T13:01:43.473Z,4.93
2018-09-25T13:04:17.393Z,4.37
2018-09-25T13:06:51.247Z,5.10
2018-09-25T13:09:24.895Z,4.47
2018-09-25T13:11:58.759Z,3.90
2018-09-25T13:14:32.742Z,4.03
2018-09-25T13:17:06.807Z,3.67
2018-09-25T13:19:40.531Z,4.03
2018-09-25T13:22:15.312Z,5.37
2018-09-25T13:24:49.204Z,4.60
2018-09-25T13:27:23.127Z,4.93
2018-09-25T13:29:56.925Z,4.20
2018-09-25T13:32:30.855Z,3.83
2018-09-25T13:35:04.757Z,4.07
2018-09-25T13:37:38.614Z,4.30
2018-09-25T13:40:12.854Z,3.80
2018-09-25T13:42:47.645Z,3.70
2018-09-25T13:45:21.322Z,3.90
2018-09-25T13:47:55.086Z,4.40
2018-09-25T13:50:28.775Z,4.07
2018-09-25T13:53:02.451Z,3.57
2018-09-25T13:55:36.282Z,3.30
2018-09-25T13:58:09.998Z,3.20
2018-09-25T14:00:43.898Z,3.00
2018-09-25T14:03:17.595Z,3.17
2018-09-25T14:05:51.329Z,3.10
2018-09-25T14:08:25.040Z,3.17
2018-09-25T14:10:58.722Z,3.10
2018-09-25T14:13:32.599Z,3.27
2018-09-25T14:16:06.337Z,3.53
2018-09-25T14:18:40.098Z,3.10
2018-09-25T14:21:13.935Z,2.83
2018-09-25T14:23:47.675Z,3.90
2018-09-25T14:26:21.319Z,3.93
2018-09-25T14:28:54.960Z,2.80
2018-09-25T14:31:28.751Z,3.37
2018-09-25T14:34:02.495Z,3.53
2018-09-25T14:36:36.329Z,3.33
2018-09-25T14:39:11.857Z,3.90
2018-09-25T14:41:45.586Z,3.07
2018-09-25T14:44:19.328Z,3.40
2018-09-25T14:46:53.154Z,3.40
2018-09-25T14:49:26.669Z,3.10
2018-09-25T14:52:00.536Z,3.53
2018-09-25T14:54:34.233Z,3.20
2018-09-25T14:57:07.896Z,3.27
2018-09-25T14:59:41.682Z,3.07
2018-09-25T15:02:15.435Z,2.97
2018-09-25T15:04:49.127Z,2.80
2018-09-25T15:07:23.010Z,3.00
2018-09-25T15:09:56.600Z,3.23
2018-09-25T15:12:30.323Z,2.70
2018-09-25T15:15:04.006Z,2.60
2018-09-25T15:17:37.712Z,2.87
2018-09-25T15:20:11.382Z,2.80
2018-09-25T15:22:45.171Z,2.73
2018-09-25T15:25:18.761Z,3.10
2018-09-25T15:27:52.466Z,2.63
2018-09-25T15:30:26.098Z,2.57
2018-09-25T15:32:59.983Z,2.60
2018-09-25T15:35:33.652Z,2.63
2018-09-25T15:38:07.316Z,2.67
2018-09-25T15:40:41.190Z,2.97
2018-09-25T15:43:14.864Z,2.90
2018-09-25T15:45:48.816Z,2.87
2018-09-25T15:48:22.554Z,3.00
2018-09-25T15:50:56.198Z,2.97
2018-09-25T15:53:30.010Z,2.97
2018-09-25T15:56:03.544Z,2.80
2018-09-25T15:58:37.402Z,2.83
2018-09-25T16:01:11.164Z,3.20
2018-09-25T16:03:45.051Z,2.47
2018-09-25T16:06:18.850Z,2.50
2018-09-25T16:08:52.648Z,2.60
2018-09-25T16:11:26.521Z,3.10
2018-09-25T16:14:00.459Z,3.17
2018-09-25T16:16:34.186Z,2.30
2018-09-25T16:19:08.111Z,2.67
2018-09-25T16:21:41.869Z,2.40
2018-09-25T16:24:15.446Z,2.53
2018-09-25T16:26:49.153Z,2.73
2018-09-25T16:29:23.077Z,2.77
2018-09-25T16:31:56.983Z,2.50
2018-09-25T16:34:30.818Z,2.60
2018-09-25T16:37:04.535Z,3.00
2018-09-25T16:39:38.309Z,2.37
2018-09-25T16:42:12.200Z,2.20
2018-09-25T16:44:45.892Z,2.40
2018-09-25T16:47:19.921Z,2.77
2018-09-25T16:49:53.849Z,2.23
2018-09-25T16:52:27.765Z,1.90
2018-09-25T16:55:01.488Z,2.60
2018-09-25T16:57:35.679Z,2.57
2018-09-25T17:00:09.310Z,2.70
2018-09-25T17:02:43.159Z,2.33
2018-09-25T17:05:16.899Z,2.60
2018-09-25T17:07:50.552Z,2.50
2018-09-25T17:10:24.292Z,2.10
2018-09-25T17:12:58.008Z,2.63
2018-09-25T17:15:31.704Z,2.50
2018-09-25T17:18:05.297Z,2.33
2018-09-25T17:20:39.102Z,2.30
2018-09-25T17:23:12.822Z,2.10
2018-09-25T17:25:46.433Z,2.33
2018-09-25T17:28:20.245Z,2.30
2018-09-25T17:30:54.071Z,2.30
2018-09-25T17:33:27.914Z,2.27
2018-09-25T17:36:01.813Z,2.23
2018-09-25T17:38:35.724Z,2.87
2018-09-25T17:41:09.698Z,2.20
2018-09-25T17:43:43.339Z,2.20
2018-09-25T17:46:18.112Z,2.20
2018-09-25T17:48:53.405Z,2.30
2018-09-25T17:51:27.211Z,2.40
2018-09-25T17:54:00.991Z,1.83
2018-09-25T17:56:34.913Z,2.57
2018-09-25T17:59:09.003Z,2.17
2018-09-25T18:01:42.749Z,2.30
2018-09-25T18:04:16.727Z,2.07
2018-09-25T18:06:50.559Z,2.13
2018-09-25T18:09:24.280Z,2.03
2018-09-25T18:11:58.122Z,2.00
2018-09-25T18:14:31.994Z,2.17
2018-09-25T18:17:05.879Z,2.33
2018-09-25T18:19:39.836Z,2.00
2018-09-25T18:22:13.772Z,1.83
2018-09-25T18:24:47.732Z,2.30
2018-09-25T18:27:21.657Z,2.10
2018-09-25T18:29:55.283Z,2.00
2018-09-25T18:32:29.048Z,4.00
2018-09-25T18:35:02.757Z,3.23
2018-09-25T18:37:36.620Z,2.40
2018-09-25T18:40:11.102Z,3.07
2018-09-25T18:42:45.018Z,2.57
2018-09-25T18:45:19.009Z,2.50
2018-09-25T18:47:52.923Z,2.40
2018-09-25T18:50:26.722Z,2.47
2018-09-25T18:53:00.340Z,2.17
2018-09-25T18:55:34.246Z,2.30
2018-09-25T18:58:07.988Z,2.50
2018-09-25T19:00:41.939Z,2.90
2018-09-25T19:03:15.844Z,2.10
2018-09-25T19:05:49.767Z,2.33
2018-09-25T19:08:23.455Z,2.07
2018-09-25T19:10:57.254Z,2.00
2018-09-25T19:13:31.034Z,2.20
2018-09-25T19:16:04.807Z,2.20
2018-09-25T19:18:38.615Z,2.20
2018-09-25T19:21:12.358Z,2.23
2018-09-25T19:23:46.133Z,2.30
2018-09-25T19:26:19.937Z,2.37
2018-09-25T19:28:53.750Z,1.80
2018-09-25T19:31:27.603Z,2.33
2018-09-25T19:34:01.546Z,2.27
2018-09-25T19:36:35.482Z,1.93
2018-09-25T19:39:09.551Z,2.80
2018-09-25T19:41:43.273Z,2.33
2018-09-25T19:44:17.092Z,2.20
2018-09-25T19:46:50.903Z,2.00
2018-09-25T19:49:24.770Z,2.10
2018-09-25T19:51:58.614Z,2.10
2018-09-25T19:54:32.286Z,2.20
2018-09-25T19:57:06.259Z,2.33
2018-09-25T19:59:40.115Z,2.33
2018-09-25T20:02:14.066Z,2.03
2018-09-25T20:04:47.949Z,2.13
2018-09-25T20:07:21.931Z,2.07
2018-09-25T20:09:55.761Z,1.97
2018-09-25T20:12:29.560Z,2.30
2018-09-25T20:15:03.476Z,2.20
2018-09-25T20:17:37.191Z,2.07
2018-09-25T20:20:11.726Z,2.00
2018-09-25T20:22:45.472Z,2.17
2018-09-25T20:25:19.131Z,2.00
2018-09-25T20:27:52.882Z,2.10
2018-09-25T20:30:26.476Z,2.10
2018-09-25T20:33:00.304Z,2.23
2018-09-25T20:35:34.083Z,2.03
2018-09-25T20:38:07.747Z,1.90
2018-09-25T20:40:41.542Z,1.73
2018-09-25T20:43:15.250Z,2.20
2018-09-25T20:45:49.038Z,2.03
2018-09-25T20:48:22.722Z,2.00
2018-09-25T20:50:56.487Z,2.07
2018-09-25T20:53:30.228Z,2.17
2018-09-25T20:56:04.139Z,1.93
2018-09-25T20:58:37.888Z,2.00
2018-09-25T21:01:11.745Z,1.80
2018-09-25T21:03:45.700Z,1.77
2018-09-25T21:06:20.794Z,1.80
2018-09-25T21:08:54.690Z,1.77
2018-09-25T21:11:28.662Z,2.10
2018-09-25T21:14:02.377Z,1.87
2018-09-25T21:16:36.246Z,1.80
2018-09-25T21:19:10.091Z,2.30
2018-09-25T21:21:43.933Z,1.90
2018-09-25T21:24:17.693Z,1.67
2018-09-25T21:26:51.652Z,2.17
2018-09-25T21:29:25.332Z,2.20
2018-09-25T21:31:59.165Z,2.00
2018-09-25T21:34:33.790Z,2.10
2018-09-25T21:37:07.427Z,2.10
2018-09-25T21:39:41.338Z,1.90
2018-09-25T21:42:15.152Z,2.30
2018-09-25T21:44:49.054Z,1.80
2018-09-25T21:47:22.692Z,2.00
2018-09-25T21:49:56.396Z,1.87
2018-09-25T21:52:30.065Z,2.20
2018-09-25T21:55:03.744Z,2.10
2018-09-25T21:57:37.432Z,2.00
2018-09-25T22:00:12.100Z,2.30
2018-09-25T22:02:45.862Z,2.23
2018-09-25T22:05:19.431Z,2.40
2018-09-25T22:07:53.345Z,1.70
2018-09-25T22:10:27.104Z,1.73
2018-09-25T22:13:01.098Z,2.27
2018-09-25T22:15:34.898Z,2.00
2018-09-25T22:18:08.660Z,1.67
2018-09-25T22:20:42.279Z,2.23
2018-09-25T22:23:16.095Z,2.00
2018-09-25T22:25:49.774Z,2.30
2018-09-25T22:28:23.557Z,2.20
2018-09-25T22:30:57.233Z,2.00
2018-09-25T22:33:31.127Z,1.93
2018-09-25T22:36:04.965Z,2.07
2018-09-25T22:38:38.759Z,2.20
2018-09-25T22:41:12.628Z,2.37
2018-09-25T22:43:46.385Z,2.03
2018-09-25T22:46:20.214Z,2.53
2018-09-25T22:48:53.931Z,1.93
2018-09-25T22:51:27.482Z,1.97
2018-09-25T22:54:01.381Z,2.17
2018-09-25T22:56:35.145Z,1.90
2018-09-25T22:59:09.043Z,1.90
2018-09-25T23:01:42.705Z,2.10
2018-09-25T23:04:16.440Z,2.10
2018-09-25T23:06:50.124Z,1.90
2018-09-25T23:09:23.913Z,2.17
2018-09-25T23:11:57.789Z,2.40
2018-09-25T23:14:31.768Z,1.77
2018-09-25T23:17:05.700Z,2.10
2018-09-25T23:19:39.637Z,1.97
2018-09-25T23:22:13.183Z,1.80
2018-09-25T23:24:46.859Z,2.13
2018-09-25T23:27:20.574Z,1.80
2018-09-25T23:29:54.210Z,1.90
2018-09-25T23:32:27.924Z,2.27
2018-09-25T23:35:01.723Z,2.10
2018-09-25T23:37:35.403Z,2.23
2018-09-25T23:40:38.877Z,2.00
2018-09-25T23:43:38.911Z,2.00
2018-09-25T23:47:14.560Z,1.50
2018-09-25T23:49:48.274Z,2.07
2018-09-25T23:52:21.239Z,2.10
2018-09-25T23:54:58.742Z,2.20
2018-09-25T23:57:32.537Z,2.00
